Cedarbutte, South Dakota
Current Conditions -  °F | °C
As of 4:55 AM on Saturday 20 Dec 2014 (Local Time) from KPHP Reporting Station
Clear Clear  
Wind Chill:   Ceiling: Unl
Heat Index: 20°   Visibility: 10mi
Dew Point: 16°   Wind: 9mph
Humidity: 85%   Direction: 270°W
Pressure: 29.93"   Gusts: NA
Location:  43.6197°N, 100.883°W
Report Text: KPHP 201055Z AUTO 27008KT 10SM CLR M07/M09 A2993 RMK AO2 SLP152 T10671089
Loading
Personal Weather Stations






























Interactive Weather Map New forecast layout! Learn more

10-Day Weather Forecast

Advertisements
Track Severe Weather on mobile